Forecasts are only available for sites displaying the forecast symbol.

Some water levels are actually in metres AHD (Australian Height Datum), click individual sites for more details.

Scroll for more >

River gauges, storages, and weirs in the Murray–Darling Basin

Type Locationsort descending River Water level Flow Volume Release Water temp Salinity Rainfall
River Gauge Albury (Union Bridge) Murray 1.82 m 22/09/2019 12:00 Not measured Not measured Not measured 12.1°C 22/09/2019 12:00 43.1 μS/cm 22/09/2019 12:00 Not measured Full data
River Gauge Balranald Murrumbidgee 1.57 m 22/09/2019 11:45 1150 ML/Day 22/09/2019 11:45 Not measured Not measured 15.5°C 22/09/2019 11:45 201.3 μS/cm 22/09/2019 11:45 Not measured Full data
River Gauge Bandiana Kiewa 2.47 m 22/09/2019 11:45 2856 ML/Day 22/09/2019 11:45 Not measured Not measured 10.9°C 22/09/2019 11:45 22.6 μS/cm 22/09/2019 11:45 Not measured Full data
River Gauge Barmah Choke Murray 2.86 m 22/09/2019 11:45 8903 ML/Day 22/09/2019 11:45 Not measured Not measured Not measured Not measured Not measured Full data
River Gauge Biggara Murray 0.86 m 22/09/2019 12:00 1746 ML/Day 22/09/2019 12:00 Not measured Not measured 9.5°C 22/09/2019 12:00 29.0 μS/cm 22/09/2019 12:00 6.0 mm 22/09/2019 9:00 Full data
River Gauge Bringenbrong Bridge Murray 1.84 m 22/09/2019 12:00 6008 ML/Day 22/09/2019 12:00 Not measured Not measured Not measured Not measured Not measured Full data
River Gauge Burtundy Darling 0.5 m 22/09/2019 11:45 1 ML/Day 22/09/2019 11:45 Not measured Not measured 17.2°C 22/09/2019 11:45 1157.8 μS/cm 3/09/2019 14:45 Not measured Full data
River Gauge Colemans Mitta 2.22 m 22/09/2019 12:15 4849 ML/Day 22/09/2019 12:15 Not measured Not measured 9.8°C 22/09/2019 11:45 41.8 μS/cm 22/09/2019 11:45 Not measured Full data
River Gauge Colignan Murray 2.27 m 22/09/2019 11:45 9139 ML/Day 22/09/2019 11:45 Not measured Not measured 16.2°C 22/09/2019 11:45 81.7 μS/cm 22/09/2019 11:45 Not measured Full data
River Gauge Corowa Murray 2.63 m 22/09/2019 12:00 12020 ML/Day 22/09/2019 12:00 Not measured Not measured 13.5°C 22/09/2019 12:00 39.2 μS/cm 22/09/2019 12:00 Not measured Full data
Storage Dartmouth Dam Mitta 457.52 m 22/09/2019 12:15 Not measured 2254 GL 22/09/2019 12:15 Not measured Not measured Not measured Not measured Full data
River Gauge Doctors Point Murray 2.84 m 22/09/2019 12:00 13087 ML/Day 22/09/2019 12:00 Not measured Not measured 12.5°C 22/09/2019 12:00 50.6 μS/cm 22/09/2019 12:00 Not measured Full data
River Gauge Echuca Wharf Murray 87.36 m 19/09/2019 23:45 Not measured Not measured Not measured Not measured Not measured Not measured Full data
River Gauge Edward Escape Wakool 0.02 m 22/09/2019 11:45 14 ML/Day 22/09/2019 11:45 Not measured Not measured 15.3°C 22/09/2019 11:45 63.6 μS/cm 22/09/2019 11:45 Not measured Full data
River Gauge Edward River Offtake Murray 2.39 m 22/09/2019 11:45 1552 ML/Day 22/09/2019 11:45 Not measured Not measured 15.0°C 22/09/2019 11:45 37.0 μS/cm 22/09/2019 11:45 Not measured Full data
Weirs Euston Weir Downstream Murray 43.6 m 22/09/2019 11:45 9885 ML/Day 22/09/2019 11:45 Not measured Not measured 15.3°C 22/09/2019 11:45 80.8 μS/cm 22/09/2019 11:45 Not measured Full data
Weirs Euston Weir Upstream Murray 47.83 m 22/09/2019 8:00 Not measured 40 GL 22/09/2019 7:45 Not measured Not measured Not measured 0.0 mm 21/02/2019 9:00 Full data
River Gauge Flow to South Australia Murray Not measured Not measured Not measured 6227.6 ML/d20/09/2019 7:45 Not measured Not measured Not measured Full data
River Gauge Frenchman Creek Murray 27.37 m 20/09/2019 7:45 Not measured Not measured 3818.0 ML/d20/09/2019 7:45 Not measured Not measured Not measured Full data
River Gauge Gulpa Creek Offtake Murray 3.05 m 22/09/2019 11:45 704 ML/Day 22/09/2019 11:45 Not measured Not measured Not measured Not measured Not measured Full data
River Gauge Hinnomunjie Mitta 1.53 m 22/09/2019 11:45 3889 ML/Day 22/09/2019 11:45 Not measured Not measured 7.0°C 22/09/2019 11:45 34.9 μS/cm 22/09/2019 11:45 16.4 mm 22/09/2019 9:00 Full data
Storage Hume Dam Murray 181.17 m 22/09/2019 12:00 Not measured 1269 GL 22/09/2019 12:00 10360.0 ML/d22/09/2019 8:00 Not measured Not measured 0.6 mm 22/09/2019 9:00 Full data
River Gauge Jingellic Murray 1.76 m 22/09/2019 11:45 4917 ML/Day 22/09/2019 11:45 Not measured Not measured 13.3°C 22/09/2019 11:45 24.5 μS/cm 22/09/2019 11:45 6.2 mm 22/09/2019 9:00 Full data
River Gauge Kerang Loddon 0.36 m 22/09/2019 11:45 152 ML/Day 22/09/2019 11:45 Not measured Not measured 15.4°C 22/09/2019 11:45 85.7 μS/cm 22/09/2019 11:45 Not measured Full data
River Gauge Lake Albert Murray 0.79 m 22/09/2019 5:45 Not measured 278 GL 22/09/2019 5:45 Not measured Not measured Not measured Not measured Full data
River Gauge Lake Alexandrina Murray 0.73 m 22/09/2019 5:45 Not measured 1597 GL 22/09/2019 5:45 Not measured Not measured 867.6 μS/cm 22/09/2019 11:45 Not measured Full data
Storage Lake Victoria Murray 26.23 m 22/09/2019 11:45 Not measured 585 GL 22/09/2019 11:45 Not measured 14.2°C 22/09/2019 11:45 130.7 μS/cm 22/09/2019 11:45 Not measured Full data
Weirs Lock 1 Downstream Murray 0.78 m 22/09/2019 11:45 Not measured Not measured 3741.9 ML/d20/09/2019 7:45 Not measured Not measured Not measured Full data
Weirs Lock 1 Upstream Murray 3.23 m 22/09/2019 11:45 Not measured Not measured Not measured 15.5°C 22/09/2019 11:45 259.1 μS/cm 22/09/2019 11:45 Not measured Full data
Weirs Lock 2 Downstream Murray 3.42 m 22/09/2019 11:45 Not measured Not measured Not measured Not measured Not measured Not measured Full data
Weirs Lock 2 Upstream Murray 6.6 m 22/09/2019 11:45 Not measured Not measured Not measured 15.5°C 22/09/2019 11:45 245.7 μS/cm 22/09/2019 11:45 Not measured Full data
Weirs Lock 3 Downstream Murray 6.79 m 22/09/2019 11:45 Not measured Not measured Not measured Not measured Not measured Not measured Full data
Weirs Lock 3 Upstream Murray 9.84 m 22/09/2019 11:45 Not measured Not measured Not measured Not measured Not measured Not measured Full data
Weirs Lock 4 Downstream Murray 10.56 m 22/09/2019 11:45 Not measured Not measured Not measured Not measured Not measured Not measured Full data
Weirs Lock 4 Upstream Murray 13.22 m 22/09/2019 11:45 Not measured Not measured Not measured Not measured Not measured Not measured Full data
Weirs Lock 5 Downstream Murray 13.41 m 22/09/2019 11:45 Not measured Not measured Not measured Not measured Not measured Not measured Full data
Weirs Lock 5 Upstream Murray 16.32 m 22/09/2019 11:45 Not measured Not measured Not measured 15.9°C 22/09/2019 11:45 151.5 μS/cm 22/09/2019 11:45 Not measured Full data
Weirs Lock 6 Downstream Murray 16.45 m 22/09/2019 11:45 Not measured Not measured Not measured Not measured Not measured Not measured Full data
Weirs Lock 6 Upstream Murray 19.28 m 22/09/2019 11:45 Not measured Not measured Not measured 15.9°C 22/09/2019 11:45 146.5 μS/cm 22/09/2019 11:45 Not measured Full data
Weirs Lock 7 Downstream Murray 20.46 m 22/09/2019 11:45 Not measured Not measured Not measured Not measured Not measured Not measured Full data
Weirs Lock 7 Upstream Murray 22.66 m 22/09/2019 11:45 Not measured Not measured Not measured 15.0°C 13/09/2019 11:00 111.3 μS/cm 13/09/2019 11:00 Not measured Full data
Weirs Lock 8 Upstream Murray 25.16 m 22/09/2019 11:45 Not measured Not measured Not measured 16.0°C 22/09/2019 11:45 106.3 μS/cm 22/09/2019 11:45 Not measured Full data
Weirs Lock 9 Downstream Murray 25.23 m 22/09/2019 11:45 Not measured Not measured Not measured Not measured Not measured Not measured Full data
Weirs Lock 9 Upstream Murray 27.4 m 22/09/2019 11:45 Not measured Not measured Not measured 15.9°C 22/09/2019 11:45 102.9 μS/cm 22/09/2019 11:45 Not measured Full data
River Gauge McCoy Bridge Goulburn 2.26 m 22/09/2019 11:45 2408 ML/Day 22/09/2019 11:45 Not measured Not measured 14.6°C 22/09/2019 11:45 101.2 μS/cm 22/09/2019 11:45 Not measured Full data
Storage Menindee Lakes Darling Not measured Not measured 13 GL 20/09/2019 7:45 Not measured Not measured Not measured Not measured Full data
Weirs Mildura Weir downstream Murray 32.42 m 22/09/2019 11:45 Not measured Not measured Not measured 17.2°C 22/09/2019 11:45 105.2 μS/cm 22/09/2019 5:30 Not measured Full data
River Gauge Morgan Downstream Murray Not measured Not measured Not measured 4373.7 ML/d22/09/2019 11:45 Not measured 257.8 μS/cm 22/09/2019 9:45 Not measured Full data
River Gauge Mulwala Canal Murray Not measured Not measured Not measured 722.4 ML/d22/09/2019 8:45 Not measured Not measured Not measured Full data
River Gauge Mundoo Barrage Murray 0.72 m 20/09/2019 7:45 Not measured Not measured Not measured Not measured Not measured Not measured Full data
River Gauge Murray Bridge Murray 0.73 m 22/09/2019 11:45 Not measured Not measured Not measured 14.1°C 22/09/2019 11:45 366.0 μS/cm 22/09/2019 11:45 Not measured Full data
River Gauge Peechelba Ovens 127.87 m 22/09/2019 11:45 3124 ML/Day 22/09/2019 11:45 Not measured Not measured 13.9°C 22/09/2019 11:45 33.6 μS/cm 22/09/2019 11:45 Not measured Full data
River Gauge Pinegrove Murray 1.59 m 22/09/2019 12:00 938 ML/Day 22/09/2019 12:00 Not measured Not measured 12.2°C 22/09/2019 12:00 67.9 μS/cm 22/09/2019 12:00 6.8 mm 22/09/2019 9:00 Full data
River Gauge Redcliffs Murray Not measured Not measured Not measured Not measured Not measured 50.9 μS/cm 22/09/2019 11:45 Not measured Full data
River Gauge Rochester Campaspe 3.07 m 22/09/2019 11:45 1152 ML/Day 22/09/2019 11:45 Not measured Not measured 13.0°C 22/09/2019 11:45 567.8 μS/cm 22/09/2019 11:45 1.8 mm 22/09/2019 9:00 Full data
River Gauge Rufus River Murray 20.4 m 20/09/2019 7:45 Not measured Not measured 1694.0 ML/d20/09/2019 7:45 Not measured 128.6 μS/cm 22/09/2019 10:00 Not measured Full data
Weirs Steven's Weir Downstream Edward 2.68 m 22/09/2019 11:45 3153 ML/Day 22/09/2019 11:45 Not measured Not measured 14.8°C 22/09/2019 11:45 46.2 μS/cm 22/09/2019 11:45 Not measured Full data
Weirs Steven's Weir Upstream Edward 4.48 m 22/09/2019 11:45 Not measured Not measured Not measured Not measured Not measured Not measured Full data
River Gauge Stoney Crossing Murray 1.6 m 22/09/2019 11:45 916 ML/Day 22/09/2019 11:45 Not measured 896.8 ML/d22/09/2019 7:45 15.9°C 22/09/2019 11:45 112.1 μS/cm 22/09/2019 11:45 Not measured Full data
River Gauge Swan Hill Murray 1.48 m 22/09/2019 11:45 7894 ML/Day 22/09/2019 11:45 Not measured Not measured 14.8°C 22/09/2019 11:45 63.7 μS/cm 22/09/2019 11:45 Not measured Full data
River Gauge Tallandoon Mitta 2.7 m 22/09/2019 11:45 5449 ML/Day 22/09/2019 11:45 Not measured Not measured 10.9°C 22/09/2019 11:45 34.9 μS/cm 22/09/2019 11:45 Not measured Full data
River Gauge Tauwitchere Barrage Murray 0.71 m 22/09/2019 11:45 Not measured Not measured Not measured Not measured Not measured Not measured Full data
River Gauge Tocumwal Murray 2.89 m 22/09/2019 11:45 15439 ML/Day 22/09/2019 11:45 Not measured Not measured 14.7°C 22/09/2019 11:45 42.3 μS/cm 22/09/2019 11:45 Not measured Full data
River Gauge Torrumbarry Headworks Murray 84.74 m 22/09/2019 12:00 Not measured Not measured 1330.3 ML/d22/09/2019 12:00 Not measured Not measured Not measured Full data
Weirs Torrumbarry Weir Downstream Murray 3 m 22/09/2019 11:45 9273 ML/Day 22/09/2019 11:45 Not measured Not measured 14.5°C 22/09/2019 11:45 77.4 μS/cm 22/09/2019 11:45 Not measured Full data
Weirs Torrumbarry Weir Upstream Murray 86.05 m 22/09/2019 12:00 Not measured 37 GL 22/09/2019 8:45 Not measured 13.9°C 22/09/2019 8:45 69.2 μS/cm 22/09/2019 8:45 1.5 mm 22/09/2019 9:00 Full data
River Gauge Wakool Canal Wakool 0.44 m 22/09/2019 11:45 Not measured Not measured 225.9 ML/d22/09/2019 8:45 Not measured Not measured Not measured Full data
River Gauge Wakool Junction Murray 3.3 m 22/09/2019 11:45 9490 ML/Day 22/09/2019 11:45 Not measured Not measured 15.2°C 22/09/2019 11:45 66.6 μS/cm 22/09/2019 11:45 Not measured Full data
River Gauge Weir 32 Upstream Darling 1.07 m 22/09/2019 11:45 3 ML/Day 22/09/2019 11:45 Not measured Not measured 17.7°C 22/09/2019 11:45 1395.0 μS/cm 22/09/2019 11:45 Not measured Full data
Weirs Wentworth Weir Murray 27.79 m 22/09/2019 11:45 Not measured Not measured 8144.6 ML/d20/09/2019 8:45 Not measured 102.0 μS/cm 20/09/2019 7:45 0.0 mm 31/01/2019 9:00 Full data
River Gauge Wilcania Darling -0.19 m 22/09/2019 11:45 1 ML/Day 22/09/2019 11:45 Not measured Not measured 20.9°C 22/09/2019 11:45 0.0 μS/cm 22/09/2019 11:45 Not measured Full data
River Gauge Yarrawonga Main Channel Murray 123.55 m 22/09/2019 11:45 Not measured Not measured 698.1 ML/d22/09/2019 11:45 Not measured Not measured Not measured Full data
Weirs Yarrawonga Weir Downstream Murray 2.27 m 22/09/2019 12:00 15074 ML/Day 22/09/2019 12:00 Not measured Not measured 14.6°C 22/09/2019 12:00 40.4 μS/cm 22/09/2019 12:00 Not measured Full data
Weirs Yarrawonga Weir Upstream Murray 124.76 m 22/09/2019 12:00 Not measured Not measured Not measured Not measured Not measured 0.0 mm 22/09/2019 9:00 Full data